Time;durP1;ratioP1;P1;durP2;ratioP2;P2;SDS_P1;SDS_P2;PMS_P1;PMS_P2;Temp;Humidity;BMP_temperature;BMP_pressure;BME280_temperature;BME280_humidity;BME280_pressure;Samples;Min_cycle;Max_cycle;Signal;HPM_P1;HPM_P2
2021/08/01 00:01:30;;;;;;;18.63;16.73;;;;;;;18.40;88.06;98298.16;124747;1093;64290;-82
2021/08/01 00:03:57;;;;;;;21.57;18.37;;;;;;;18.39;88.83;98305.41;124714;1094;64258;-83
2021/08/01 00:06:26;;;;;;;16.90;15.23;;;;;;;18.42;87.88;98313.16;124759;1093;64216;-84
2021/08/01 00:08:54;;;;;;;16.87;15.17;;;;;;;18.33;88.04;98311.49;124744;1093;64244;-83
2021/08/01 00:11:21;;;;;;;17.17;15.47;;;;;;;18.25;87.52;98306.09;124725;1093;64421;-82
2021/08/01 00:13:48;;;;;;;16.30;14.67;;;;;;;18.23;88.01;98308.11;124720;1093;64269;-83
2021/08/01 00:16:15;;;;;;;17.60;15.87;;;;;;;18.29;88.19;98306.59;124848;1093;64263;-83
2021/08/01 00:18:43;;;;;;;19.90;17.87;;;;;;;18.38;88.44;98305.59;124883;1093;64248;-82
2021/08/01 00:21:10;;;;;;;19.83;18.03;;;;;;;18.44;88.28;98307.61;125185;1093;64162;-83
2021/08/01 00:23:37;;;;;;;19.67;17.77;;;;;;;18.43;88.32;98297.80;124759;1093;64807;-83
2021/08/01 00:26:05;;;;;;;18.97;17.17;;;;;;;18.40;88.08;98314.34;124801;1093;64388;-83
2021/08/01 00:28:32;;;;;;;21.33;17.97;;;;;;;18.36;88.33;98313.01;124814;1093;64284;-84
2021/08/01 00:30:59;;;;;;;21.23;18.43;;;;;;;18.36;88.32;98319.24;124723;1093;64317;-84
2021/08/01 00:33:27;;;;;;;19.25;17.25;;;;;;;18.38;88.76;98322.63;124836;1093;64313;-85
2021/08/01 00:35:54;;;;;;;19.47;17.47;;;;;;;18.42;88.97;98329.34;124856;1093;64190;-83
2021/08/01 00:38:22;;;;;;;18.17;16.27;;;;;;;18.43;87.94;98328.35;124749;1093;64180;-82
2021/08/01 00:40:49;;;;;;;16.97;15.37;;;;;;;18.38;87.56;98333.41;124906;1093;64235;-82
2021/08/01 00:43:16;;;;;;;20.47;18.27;;;;;;;18.28;88.10;98326.50;124912;1093;64715;-82
2021/08/01 00:45:44;;;;;;;18.60;16.80;;;;;;;18.26;87.74;98323.95;124949;1093;64340;-84
2021/08/01 00:48:13;;;;;;;19.37;17.47;;;;;;;18.20;87.71;98324.64;124863;1093;64430;-83
2021/08/01 00:50:43;;;;;;;21.83;19.07;;;;;;;18.17;87.90;98319.59;124996;1092;64382;-84
2021/08/01 00:53:11;;;;;;;19.80;17.50;;;;;;;18.15;88.21;98321.60;124829;1093;64274;-82
2021/08/01 00:59:24;;;;;;;16.57;14.87;;;;;;;17.97;88.22;98314.48;124876;1093;64306;-83
2021/08/01 01:02:00;;;;;;;18.27;15.43;;;;;;;17.87;87.95;98310.27;125051;1093;64309;-86
2021/08/01 01:04:52;;;;;;;20.37;17.40;;;;;;;17.86;88.27;98304.03;124786;1093;64406;-84
2021/08/01 01:07:34;;;;;;;20.03;15.83;;;;;;;17.89;88.80;98301.00;124798;1093;64268;-86
2021/08/01 01:10:05;;;;;;;18.13;16.33;;;;;;;18.01;88.77;98306.06;124944;1093;64371;-83
2021/08/01 01:13:10;;;;;;;17.80;16.03;;;;;;;18.04;88.61;98300.36;124817;1093;64274;-83
2021/08/01 01:15:59;;;;;;;17.00;15.20;;;;;;;18.02;88.38;98297.82;124823;1094;64418;-83
2021/08/01 01:18:43;;;;;;;16.80;15.10;;;;;;;18.04;88.78;98298.50;124755;1093;64319;-82
2021/08/01 01:21:22;;;;;;;16.00;14.30;;;;;;;17.98;88.48;98291.93;124779;1093;64268;-83
2021/08/01 01:23:59;;;;;;;18.43;15.30;;;;;;;17.85;88.31;98291.58;124817;1093;64268;-83
2021/08/01 01:27:02;;;;;;;16.07;14.20;;;;;;;17.82;88.60;98291.05;124840;1092;64290;-81
2021/08/01 01:29:57;;;;;;;16.90;15.23;;;;;;;17.81;89.06;98283.98;124773;1093;64252;-81
2021/08/01 01:32:32;;;;;;;18.97;16.27;;;;;;;17.85;89.00;98280.80;124771;1093;64187;-80
2021/08/01 01:35:06;;;;;;;22.03;19.80;;;;;;;17.95;89.38;98278.76;124751;1093;64193;-80
2021/08/01 01:37:34;;;;;;;19.13;17.13;;;;;;;18.03;89.31;98277.92;124763;1093;64295;-84
2021/08/01 01:40:02;;;;;;;19.37;17.50;;;;;;;18.10;89.76;98278.11;124783;1093;64331;-83
2021/08/01 01:42:32;;;;;;;17.77;15.97;;;;;;;18.13;89.42;98275.91;124743;1093;64303;-83
2021/08/01 01:45:01;;;;;;;18.27;16.33;;;;;;;18.14;89.65;98274.92;124775;1093;64242;-83
2021/08/01 01:47:28;;;;;;;18.30;16.50;;;;;;;18.12;89.25;98268.00;124828;1093;64287;-83
2021/08/01 01:49:59;;;;;;;17.43;15.73;;;;;;;18.05;88.77;98278.61;124759;1093;64268;-83
2021/08/01 01:52:27;;;;;;;;;;;;;;;18.02;89.15;98276.25;124828;1093;64268;-83
2021/08/01 01:54:55;;;;;;;17.90;16.05;;;;;;;17.94;88.68;98278.94;124915;1092;64428;-83
2021/08/01 01:57:22;;;;;;;17.73;15.03;;;;;;;17.87;88.86;98270.66;124961;1093;64277;-81
2021/08/01 01:59:50;;;;;;;17.97;15.50;;;;;;;17.85;89.16;98278.09;124704;1093;64300;-80
2021/08/01 02:02:17;;;;;;;18.47;16.07;;;;;;;17.88;89.66;98275.06;124833;1093;64319;-80
2021/08/01 02:04:44;;;;;;;16.57;12.83;;;;;;;17.86;90.39;98273.55;124716;1093;64370;-83
2021/08/01 02:07:12;;;;;;;15.65;13.50;;;;;;;17.80;90.51;98268.80;124689;1093;64184;-83
2021/08/01 02:09:58;;;;;;;15.60;13.83;;;;;;;17.75;90.28;98267.43;124790;1093;64383;-82
2021/08/01 02:12:33;;;;;;;14.87;12.97;;;;;;;17.75;91.09;98263.90;124780;1093;64260;-82
2021/08/01 02:15:06;;;;;;;16.63;13.13;;;;;;;17.75;90.84;98274.68;124855;1093;64274;-82
2021/08/01 02:18:06;;;;;;;16.50;14.83;;;;;;;17.75;91.27;98270.13;124759;1093;64187;-82
2021/08/01 02:20:40;;;;;;;16.27;13.80;;;;;;;17.79;91.43;98267.97;124722;1093;64457;-82
2021/08/01 02:23:10;;;;;;;16.27;14.57;;;;;;;17.80;91.56;98275.06;124721;1093;64332;-82
2021/08/01 02:25:37;;;;;;;16.13;14.47;;;;;;;17.79;91.73;98276.05;124711;1093;64316;-82
2021/08/01 02:28:08;;;;;;;15.93;14.20;;;;;;;17.81;91.91;98270.50;124716;1093;64358;-85
2021/08/01 02:30:37;;;;;;;15.67;14.03;;;;;;;17.82;92.23;98264.09;124776;1093;64309;-82
2021/08/01 02:33:07;;;;;;;15.95;13.95;;;;;;;17.83;92.05;98265.80;124762;1093;64293;-82
2021/08/01 02:35:35;;;;;;;18.40;15.28;;;;;;;17.85;92.21;98263.75;124812;1093;64277;-82
2021/08/01 02:38:04;;;;;;;17.85;14.60;;;;;;;17.90;92.36;98256.84;124776;1093;64278;-82
2021/08/01 02:40:37;;;;;;;16.33;14.77;;;;;;;17.95;92.06;98249.10;124832;1093;64312;-82
2021/08/01 02:43:08;;;;;;;16.63;14.83;;;;;;;18.04;92.29;98252.66;124783;1093;64248;-82
2021/08/01 02:45:38;;;;;;;18.70;16.70;;;;;;;18.10;91.92;98249.28;124750;1093;64283;-82
2021/08/01 02:48:07;;;;;;;17.73;15.93;;;;;;;18.17;91.66;98246.77;124796;1093;64459;-82
2021/08/01 02:50:37;;;;;;;19.53;17.57;;;;;;;18.20;91.76;98241.87;124803;1093;64210;-83
2021/08/01 02:53:10;;;;;;;17.30;15.60;;;;;;;18.26;91.96;98239.50;124808;1093;64223;-82
2021/08/01 02:55:42;;;;;;;18.40;16.50;;;;;;;18.32;91.55;98242.34;124766;1093;64191;-84
2021/08/01 02:58:10;;;;;;;18.33;16.43;;;;;;;18.34;91.31;98240.33;124718;1093;64244;-84
2021/08/01 03:00:38;;;;;;;18.40;16.10;;;;;;;18.39;91.58;98243.36;124731;1093;64335;-84
2021/08/01 03:03:05;;;;;;;17.87;15.93;;;;;;;18.46;91.60;98240.84;124788;1093;64268;-84
2021/08/01 03:05:34;;;;;;;19.20;15.30;;;;;;;18.48;91.11;98237.95;124756;1093;64298;-84
2021/08/01 03:08:02;;;;;;;16.37;14.67;;;;;;;18.49;90.78;98245.05;124725;1093;64267;-84
2021/08/01 03:10:29;;;;;;;16.80;15.10;;;;;;;18.43;90.86;98249.24;124769;1093;64316;-84
2021/08/01 03:12:56;;;;;;;15.93;14.37;;;;;;;18.43;90.91;98249.24;124788;1093;64380;-84
2021/08/01 03:15:24;;;;;;;15.03;13.63;;;;;;;18.40;90.80;98250.45;124849;1093;64274;-84
2021/08/01 03:17:51;;;;;;;16.73;14.87;;;;;;;18.40;90.51;98245.06;124747;1093;64201;-84
2021/08/01 03:20:18;;;;;;;16.23;14.73;;;;;;;18.41;90.63;98245.90;124884;1093;64296;-84
2021/08/01 03:22:45;;;;;;;16.50;15.00;;;;;;;18.40;90.54;98246.89;124851;1093;64290;-85
2021/08/01 03:25:12;;;;;;;16.70;14.10;;;;;;;18.36;90.31;98249.10;124764;1093;64296;-82
2021/08/01 03:27:39;;;;;;;17.73;15.23;;;;;;;18.33;90.75;98252.14;124736;1094;64274;-81
2021/08/01 03:30:07;;;;;;;16.17;14.53;;;;;;;18.32;90.74;98250.44;124734;1093;64287;-83
2021/08/01 03:32:34;;;;;;;16.07;14.50;;;;;;;18.37;90.83;98256.17;124685;1093;64281;-83
2021/08/01 03:35:01;;;;;;;16.33;14.73;;;;;;;18.45;90.83;98246.39;124758;1093;64332;-83
2021/08/01 03:37:28;;;;;;;16.27;14.63;;;;;;;18.47;90.54;98247.06;124773;1093;64196;-83
2021/08/01 03:39:55;;;;;;;17.20;15.40;;;;;;;18.46;90.69;98248.06;124718;1093;64274;-82
2021/08/01 03:42:23;;;;;;;18.00;16.30;;;;;;;18.49;90.61;98243.19;124769;1093;64347;-82
2021/08/01 03:44:50;;;;;;;18.30;16.40;;;;;;;18.49;90.98;98237.78;124745;1093;64297;-82
2021/08/01 03:47:17;;;;;;;17.70;16.00;;;;;;;18.55;90.77;98220.90;124782;1093;64364;-83
2021/08/01 03:49:44;;;;;;;17.03;15.30;;;;;;;18.61;90.82;98213.97;124780;1093;64338;-83
2021/08/01 03:52:11;;;;;;;17.83;16.03;;;;;;;18.60;90.53;98217.69;124744;1093;64297;-83
2021/08/01 03:54:39;;;;;;;16.10;14.53;;;;;;;18.56;90.38;98224.44;124726;1093;64196;-83
2021/08/01 03:57:06;;;;;;;18.10;16.37;;;;;;;18.51;90.81;98237.59;124718;1093;64338;-82
2021/08/01 03:59:35;;;;;;;19.10;17.10;;;;;;;18.48;90.80;98235.25;124763;1093;64245;-82
2021/08/01 04:02:05;;;;;;;18.87;17.07;;;;;;;18.47;90.75;98226.31;124740;1093;64293;-82
2021/08/01 04:04:32;;;;;;;19.57;17.60;;;;;;;18.50;91.00;98223.27;124882;1093;64312;-83
2021/08/01 04:06:59;;;;;;;19.43;17.33;;;;;;;18.51;91.11;98213.31;124760;1093;64290;-83
2021/08/01 04:09:26;;;;;;;18.60;16.70;;;;;;;18.55;90.97;98218.20;124780;1093;64257;-83
2021/08/01 04:11:53;;;;;;;17.53;15.77;;;;;;;18.62;91.10;98231.86;124730;1093;64226;-83
2021/08/01 04:14:21;;;;;;;16.47;14.80;;;;;;;18.64;91.24;98240.60;124747;1093;64279;-84
2021/08/01 04:16:48;;;;;;;18.20;16.20;;;;;;;18.70;90.95;98239.94;124683;1093;64354;-84
2021/08/01 04:19:15;;;;;;;18.07;15.50;;;;;;;18.67;90.62;98232.19;124745;1093;64271;-83
2021/08/01 04:21:44;;;;;;;16.90;15.10;;;;;;;18.71;90.95;98229.97;124697;1093;64335;-83
2021/08/01 04:24:12;;;;;;;18.23;16.27;;;;;;;18.76;91.12;98228.47;124760;1093;64271;-83
2021/08/01 04:26:39;;;;;;;15.35;13.85;;;;;;;18.85;91.04;98230.14;124781;1093;64408;-83
2021/08/01 04:29:07;;;;;;;17.63;16.03;;;;;;;18.92;91.01;98222.16;124789;1093;64294;-84
2021/08/01 04:31:34;;;;;;;17.20;15.40;;;;;;;19.03;91.11;98224.47;124764;1093;64263;-84
2021/08/01 04:34:01;;;;;;;16.97;15.17;;;;;;;19.10;90.61;98229.19;124777;1093;64291;-84
2021/08/01 04:36:28;;;;;;;15.90;14.33;;;;;;;19.05;90.54;98225.14;124689;1093;64424;-83
2021/08/01 04:38:55;;;;;;;17.77;14.87;;;;;;;19.01;90.67;98225.66;124691;1093;64351;-81
2021/08/01 04:41:23;;;;;;;17.37;15.50;;;;;;;18.96;90.35;98222.67;124736;1093;64300;-83
2021/08/01 04:43:50;;;;;;;17.00;15.20;;;;;;;18.98;90.54;98224.16;124771;1093;64300;-83
2021/08/01 04:46:17;;;;;;;16.90;15.17;;;;;;;18.96;90.61;98223.52;124715;1093;64408;-83
2021/08/01 04:48:45;;;;;;;17.47;15.70;;;;;;;18.97;90.90;98218.95;124692;1093;64545;-83
2021/08/01 04:51:12;;;;;;;17.87;16.07;;;;;;;19.02;91.12;98219.27;124667;1093;64228;-83
2021/08/01 04:53:39;;;;;;;19.00;16.20;;;;;;;19.08;90.58;98219.39;124746;1093;64271;-83
2021/08/01 04:56:10;;;;;;;18.20;15.97;;;;;;;19.15;90.67;98211.44;124732;1093;64267;-83
2021/08/01 04:58:37;;;;;;;17.77;15.97;;;;;;;19.28;90.78;98203.59;124766;1093;64340;-83
2021/08/01 05:01:16;;;;;;;20.67;17.10;;;;;;;19.37;90.63;98211.66;124751;1093;64247;-83
2021/08/01 05:03:43;;;;;;;18.90;16.87;;;;;;;19.45;90.89;98217.84;124811;1093;64433;-83
2021/08/01 05:06:10;;;;;;;18.60;16.75;;;;;;;19.57;90.51;98218.29;124769;1093;64334;-83
2021/08/01 05:08:39;;;;;;;19.53;17.10;;;;;;;19.68;90.44;98219.77;124770;1093;65451;-83
2021/08/01 05:11:07;;;;;;;17.50;15.65;;;;;;;19.79;90.61;98226.62;124764;1093;64241;-83
2021/08/01 05:13:34;;;;;;;17.40;15.63;;;;;;;19.89;90.26;98236.17;124756;1093;64395;-83
2021/08/01 05:16:02;;;;;;;16.33;14.27;;;;;;;20.01;90.58;98241.14;124795;1093;64385;-83
2021/08/01 05:18:29;;;;;;;15.17;13.37;;;;;;;20.18;90.46;98243.53;124836;1093;64338;-83
2021/08/01 05:20:56;;;;;;;14.43;12.93;;;;;;;20.33;90.04;98254.41;124859;1093;64195;-83
2021/08/01 05:23:24;;;;;;;15.07;13.47;;;;;;;20.43;89.53;98256.83;124908;1093;64271;-83
2021/08/01 05:25:52;;;;;;;13.57;12.13;;;;;;;20.52;89.32;98255.74;124883;1093;64434;-83
2021/08/01 05:28:19;;;;;;;13.80;12.50;;;;;;;20.65;88.71;98259.73;124874;1093;64324;-82
2021/08/01 05:30:47;;;;;;;13.67;11.90;;;;;;;20.77;88.09;98260.93;124970;1093;64251;-82
2021/08/01 05:33:16;;;;;;;14.07;12.60;;;;;;;20.82;87.76;98256.63;124946;1093;64268;-83
2021/08/01 05:35:43;;;;;;;14.60;12.80;;;;;;;20.85;87.27;98244.59;124819;1093;64361;-83
2021/08/01 05:38:10;;;;;;;14.17;12.30;;;;;;;20.83;87.15;98244.79;124948;1093;64370;-83
2021/08/01 05:40:37;;;;;;;12.80;11.47;;;;;;;20.83;87.23;98241.25;124891;1093;64436;-82
2021/08/01 05:43:04;;;;;;;15.63;12.43;;;;;;;20.91;86.81;98248.44;124877;1093;64319;-82
2021/08/01 05:45:32;;;;;;;14.23;11.87;;;;;;;20.92;86.75;98245.53;124719;1093;64491;-82
2021/08/01 05:47:59;;;;;;;12.10;10.87;;;;;;;20.92;86.21;98250.95;124874;1093;64223;-82
2021/08/01 05:50:26;;;;;;;14.50;12.07;;;;;;;20.91;86.23;98246.56;124848;1093;64763;-83
2021/08/01 05:52:53;;;;;;;12.87;11.67;;;;;;;20.89;85.91;98245.07;124853;1093;64338;-82
2021/08/01 05:55:20;;;;;;;14.60;12.73;;;;;;;20.83;85.97;98243.95;124695;1093;64294;-83
2021/08/01 05:57:48;;;;;;;13.93;11.77;;;;;;;20.76;85.95;98245.72;124902;1093;64704;-83
2021/08/01 06:00:15;;;;;;;13.03;11.30;;;;;;;20.72;85.80;98239.84;124732;1093;64296;-82
2021/08/01 06:02:42;;;;;;;13.13;11.83;;;;;;;20.67;85.59;98236.86;124885;1093;64213;-83
2021/08/01 06:05:10;;;;;;;13.80;11.37;;;;;;;20.74;85.93;98232.35;124797;1093;64344;-83
2021/08/01 06:07:37;;;;;;;12.85;11.55;;;;;;;20.89;85.65;98226.95;124872;1093;64293;-83
2021/08/01 06:10:05;;;;;;;12.93;11.63;;;;;;;20.95;85.28;98226.19;124895;1093;64274;-83
2021/08/01 06:12:32;;;;;;;12.93;11.37;;;;;;;21.02;85.13;98219.00;124872;1093;64344;-83
2021/08/01 06:14:59;;;;;;;11.97;10.73;;;;;;;21.09;85.20;98215.52;124861;1093;64434;-82
2021/08/01 06:17:26;;;;;;;11.57;10.47;;;;;;;21.18;84.95;98217.11;124899;1093;64344;-82
2021/08/01 06:19:55;;;;;;;12.07;10.60;;;;;;;21.22;84.89;98210.27;124883;1091;64268;-83
2021/08/01 06:22:23;;;;;;;11.67;10.57;;;;;;;21.21;84.34;98208.59;124893;1093;64252;-83
2021/08/01 06:24:51;;;;;;;11.77;10.53;;;;;;;21.21;84.02;98214.86;124919;1093;64302;-83
2021/08/01 06:27:18;;;;;;;11.67;10.50;;;;;;;21.24;84.03;98206.34;124740;1093;64385;-83
2021/08/01 06:29:46;;;;;;;11.37;10.23;;;;;;;21.33;84.10;98200.80;124784;1093;64390;-82
2021/08/01 06:32:13;;;;;;;14.13;10.67;;;;;;;21.43;83.87;98215.79;124791;1093;64275;-82
2021/08/01 06:34:40;;;;;;;11.33;10.17;;;;;;;21.56;83.88;98211.52;124796;1093;64297;-83
2021/08/01 06:37:07;;;;;;;11.03;9.90;;;;;;;21.65;83.37;98205.80;124740;1093;64373;-83
2021/08/01 06:39:35;;;;;;;12.70;9.53;;;;;;;21.75;83.06;98202.78;124769;1093;64278;-82
2021/08/01 06:42:02;;;;;;;11.30;9.85;;;;;;;21.99;82.63;98214.27;124865;1093;64293;-83
2021/08/01 06:44:30;;;;;;;11.00;9.73;;;;;;;22.40;81.75;98205.44;124843;1093;64281;-82
2021/08/01 06:46:57;;;;;;;10.93;9.70;;;;;;;22.86;80.58;98204.91;124751;1093;64284;-83
2021/08/01 06:49:24;;;;;;;10.30;9.30;;;;;;;23.23;80.12;98201.76;124879;1092;64268;-83
2021/08/01 06:51:51;;;;;;;10.30;9.10;;;;;;;23.48;79.30;98194.93;124856;1093;64372;-82
2021/08/01 06:54:18;;;;;;;9.97;8.73;;;;;;;23.69;78.81;98186.61;124924;1093;64428;-83
2021/08/01 06:56:45;;;;;;;10.77;9.13;;;;;;;24.10;78.10;98186.48;124787;1093;64390;-83
2021/08/01 06:59:13;;;;;;;10.23;9.07;;;;;;;24.55;77.22;98182.30;124957;1093;64293;-83
2021/08/01 07:01:41;;;;;;;10.03;8.67;;;;;;;24.66;76.19;98179.73;124818;1093;64287;-83
2021/08/01 07:04:08;;;;;;;11.30;9.73;;;;;;;24.59;75.91;98181.63;124929;1093;64399;-83
2021/08/01 07:06:35;;;;;;;11.10;10.00;;;;;;;24.50;75.72;98185.64;124965;1092;64282;-83
2021/08/01 07:09:02;;;;;;;10.07;8.93;;;;;;;24.42;75.35;98174.94;124752;1093;64297;-83
2021/08/01 07:11:29;;;;;;;10.95;9.80;;;;;;;24.34;75.29;98180.61;124913;1093;64251;-82
2021/08/01 07:13:57;;;;;;;11.30;10.30;;;;;;;24.30;74.92;98172.87;124912;1093;64297;-83
2021/08/01 07:16:24;;;;;;;10.67;9.67;;;;;;;24.26;74.62;98176.22;124940;1093;65603;-83
2021/08/01 07:18:51;;;;;;;11.93;10.83;;;;;;;24.23;74.52;98165.75;124784;1092;64415;-83
2021/08/01 07:21:19;;;;;;;10.60;9.67;;;;;;;24.25;74.05;98158.19;124940;1093;64226;-83
2021/08/01 07:23:46;;;;;;;11.47;10.37;;;;;;;24.30;73.46;98145.64;124914;1093;64294;-83
2021/08/01 07:26:13;;;;;;;9.50;8.17;;;;;;;24.40;73.22;98137.01;124827;1093;64277;-83
2021/08/01 07:28:40;;;;;;;13.07;9.33;;;;;;;24.53;72.43;98128.84;124824;1093;64274;-82
2021/08/01 07:31:08;;;;;;;9.23;8.27;;;;;;;24.64;72.75;98121.06;124790;1093;64225;-83
2021/08/01 07:33:35;;;;;;;9.17;8.27;;;;;;;24.63;71.36;98103.88;124788;1093;64291;-82
2021/08/01 07:36:02;;;;;;;10.45;9.45;;;;;;;24.50;71.43;98098.48;124944;1093;64376;-82
2021/08/01 07:38:30;;;;;;;11.50;10.30;;;;;;;24.24;71.42;98096.62;124905;1093;64367;-83
2021/08/01 07:40:57;;;;;;;12.13;9.30;;;;;;;24.03;71.63;98100.41;124757;1093;64402;-83
2021/08/01 07:43:24;;;;;;;11.00;9.83;;;;;;;23.90;72.08;98111.31;124896;1093;64438;-83
2021/08/01 07:45:51;;;;;;;10.13;9.07;;;;;;;23.76;72.56;98110.48;124845;1093;64291;-82
2021/08/01 07:48:18;;;;;;;11.30;9.87;;;;;;;23.74;73.24;98120.73;124758;1093;64658;-84
2021/08/01 07:50:45;;;;;;;10.20;9.23;;;;;;;23.63;73.60;98138.48;124726;1093;64277;-82
2021/08/01 07:53:13;;;;;;;12.20;10.60;;;;;;;23.41;73.72;98121.51;124846;1093;64159;-83
2021/08/01 07:55:42;;;;;;;11.97;10.87;;;;;;;23.18;73.80;98102.84;124874;1093;64513;-81
2021/08/01 07:58:09;;;;;;;12.58;10.13;;;;;;;23.00;74.53;98097.97;124888;1093;64287;-82
2021/08/01 08:00:36;;;;;;;12.47;11.10;;;;;;;22.86;74.48;98098.95;124892;1093;64274;-81
2021/08/01 08:03:06;;;;;;;11.60;10.50;;;;;;;22.84;74.86;98087.44;124905;1093;64313;-81
2021/08/01 08:05:33;;;;;;;11.07;10.07;;;;;;;22.84;75.11;98080.12;124690;1093;64412;-81
2021/08/01 08:08:01;;;;;;;11.63;10.53;;;;;;;22.93;74.86;98078.91;124865;1093;64412;-81
2021/08/01 08:10:28;;;;;;;11.30;10.17;;;;;;;22.99;74.76;98083.55;124804;1093;64344;-82
2021/08/01 08:13:02;;;;;;;12.85;10.85;;;;;;;23.04;74.81;98085.66;124898;1093;64290;-82
2021/08/01 08:15:33;;;;;;;12.03;10.83;;;;;;;23.07;75.01;98084.42;124927;1093;64254;-82
2021/08/01 08:18:01;;;;;;;11.00;9.93;;;;;;;23.14;75.06;98105.11;124787;1093;64351;-82
2021/08/01 08:20:29;;;;;;;11.87;10.70;;;;;;;23.28;75.59;98100.56;124849;1093;64428;-82
2021/08/01 08:22:56;;;;;;;10.77;9.67;;;;;;;23.53;75.05;98097.24;124945;1093;64329;-82
2021/08/01 08:25:23;;;;;;;11.53;10.27;;;;;;;23.84;74.75;98093.94;124902;1093;64290;-82
2021/08/01 08:27:51;;;;;;;10.85;9.95;;;;;;;24.16;74.56;98102.29;124896;1093;64271;-82
2021/08/01 08:30:19;;;;;;;12.40;11.23;;;;;;;24.27;73.66;98102.46;124732;1093;64332;-82
2021/08/01 08:32:49;;;;;;;11.73;10.55;;;;;;;24.28;73.21;98086.98;124958;1093;64258;-82
2021/08/01 08:35:16;;;;;;;12.37;10.50;;;;;;;24.28;73.48;98117.77;124946;1092;64367;-83
2021/08/01 08:37:49;;;;;;;10.77;9.73;;;;;;;24.20;73.78;98138.95;124908;1093;64247;-82
2021/08/01 08:40:16;;;;;;;11.13;8.67;;;;;;;24.01;73.56;98151.50;124756;1093;64274;-82
2021/08/01 08:42:45;;;;;;;10.07;9.17;;;;;;;23.82;73.82;98174.94;124806;1093;64274;-82
2021/08/01 08:45:15;;;;;;;9.98;8.98;;;;;;;23.62;74.22;98194.77;124928;1093;64254;-82
2021/08/01 08:47:47;;;;;;;;;;;;;;;23.41;74.15;98213.97;124831;1093;64288;-82
2021/08/01 08:50:20;;;;;;;8.97;8.03;;;;;;;23.18;74.43;98212.40;124764;1093;64271;-82
2021/08/01 08:52:51;;;;;;;10.57;8.93;;;;;;;22.99;74.82;98216.71;124827;1093;64288;-81
2021/08/01 08:55:21;;;;;;;9.30;8.33;;;;;;;22.81;75.20;98219.09;124751;1093;64375;-81
2021/08/01 08:58:00;;;;;;;10.67;8.20;;;;;;;22.69;75.51;98218.78;124819;1093;64194;-81
2021/08/01 09:00:28;;;;;;;15.10;8.93;;;;;;;22.56;76.33;98215.98;124809;1093;64329;-82
2021/08/01 09:02:57;;;;;;;10.25;9.15;;;;;;;22.42;76.66;98220.49;124954;1092;64371;-82
2021/08/01 09:05:26;;;;;;;11.53;8.97;;;;;;;22.37;77.29;98222.13;124982;1093;64276;-83
2021/08/01 09:07:53;;;;;;;9.63;8.60;;;;;;;22.32;77.42;98214.56;124774;1092;64383;-82
2021/08/01 09:10:21;;;;;;;9.47;8.57;;;;;;;22.27;77.69;98217.86;124716;1094;64340;-82
2021/08/01 09:12:54;;;;;;;10.60;8.80;;;;;;;22.23;78.27;98210.33;124719;1093;64258;-82
2021/08/01 09:15:27;;;;;;;13.13;9.90;;;;;;;22.09;78.15;98193.91;124809;1093;64300;-82
2021/08/01 09:17:57;;;;;;;12.53;10.07;;;;;;;22.00;79.00;98184.21;124830;1093;64213;-82
2021/08/01 09:20:30;;;;;;;13.13;9.63;;;;;;;21.93;79.00;98186.02;124741;1093;64274;-82
2021/08/01 09:23:02;;;;;;;10.70;8.93;;;;;;;21.90;79.58;98183.70;124775;1093;64194;-83
2021/08/01 09:25:41;;;;;;;11.43;10.27;;;;;;;21.89;80.12;98128.61;124784;1093;64299;-82
2021/08/01 09:28:17;;;;;;;11.00;9.87;;;;;;;21.93;80.11;98074.78;124936;1092;64370;-83
2021/08/01 09:30:50;;;;;;;10.07;8.70;;;;;;;22.04;80.37;98124.98;124779;1093;64373;-82
2021/08/01 09:33:34;;;;;;;12.10;10.00;;;;;;;22.21;80.50;98096.52;124815;1093;64386;-82
2021/08/01 09:36:13;;;;;;;12.07;10.87;;;;;;;22.58;80.59;98078.13;124795;1093;64332;-82
2021/08/01 09:38:52;;;;;;;10.45;9.45;;;;;;;22.97;80.75;98074.76;124837;1093;64275;-83
2021/08/01 09:41:22;;;;;;;9.60;8.80;;;;;;;23.41;79.88;98054.36;124746;1093;64207;-82
2021/08/01 09:44:03;;;;;;;9.80;8.80;;;;;;;23.74;78.87;98018.17;124956;1093;64249;-83
2021/08/01 09:46:46;;;;;;;9.63;8.63;;;;;;;23.97;78.02;98006.84;124909;1093;64156;-83
2021/08/01 09:49:19;;;;;;;9.95;8.95;;;;;;;24.31;77.79;97992.08;124945;1093;64418;-83
2021/08/01 09:51:48;;;;;;;9.97;8.97;;;;;;;24.44;76.56;97965.85;124897;1093;64248;-82
2021/08/01 09:54:17;;;;;;;10.15;9.18;;;;;;;24.28;76.29;97927.16;124850;1093;64269;-82
2021/08/01 09:57:04;;;;;;;9.40;8.50;;;;;;;24.26;76.41;97937.42;125072;1093;64223;-82
2021/08/01 09:59:32;;;;;;;9.03;8.17;;;;;;;24.51;76.40;97936.70;124727;1092;64331;-89
2021/08/01 10:02:04;;;;;;;8.45;7.75;;;;;;;24.65;74.96;97918.41;125110;1094;64225;-79
2021/08/01 10:04:40;;;;;;;8.07;7.23;;;;;;;24.69;74.86;97930.52;124731;1093;64297;-79
2021/08/01 10:07:13;;;;;;;8.13;7.33;;;;;;;24.79;74.64;97954.58;124701;1093;64277;-79
2021/08/01 10:09:45;;;;;;;9.05;8.15;;;;;;;24.88;74.47;97973.19;124786;1093;64300;-79
2021/08/01 10:12:14;;;;;;;9.30;8.40;;;;;;;24.92;74.30;97971.67;124806;1093;64798;-78
2021/08/01 10:14:45;;;;;;;8.37;7.50;;;;;;;24.94;74.29;97982.37;124714;1093;64447;-78
2021/08/01 10:17:12;;;;;;;9.80;7.13;;;;;;;24.96;74.53;97992.00;124816;1093;64323;-78
2021/08/01 10:19:39;;;;;;;8.97;7.37;;;;;;;24.85;73.74;97989.12;124750;1093;64229;-78
2021/08/01 10:22:09;;;;;;;8.10;7.30;;;;;;;24.74;74.12;98005.10;124712;1093;64203;-78
2021/08/01 10:24:36;;;;;;;8.60;7.80;;;;;;;24.73;74.25;97994.44;124690;1093;64367;-79
2021/08/01 10:27:06;;;;;;;9.40;7.83;;;;;;;24.75;74.22;97998.63;124719;1093;64819;-79
2021/08/01 10:29:53;;;;;;;7.40;6.63;;;;;;;24.70;74.11;97982.09;124759;1093;64279;-78
2021/08/01 10:32:21;;;;;;;8.33;6.73;;;;;;;24.64;74.45;98012.91;124820;1093;64194;-78
2021/08/01 10:34:53;;;;;;;6.70;6.10;;;;;;;24.52;74.46;98010.05;124732;1093;64287;-78
2021/08/01 10:37:34;;;;;;;6.17;5.57;;;;;;;24.34;74.59;98022.66;124652;1091;64379;-80
2021/08/01 10:40:09;;;;;;;6.73;5.57;;;;;;;24.24;74.67;98010.32;124704;1093;64460;-78
2021/08/01 10:42:40;;;;;;;5.83;5.30;;;;;;;24.14;74.94;98037.15;124675;1093;64309;-79
2021/08/01 10:45:09;;;;;;;5.57;5.17;;;;;;;23.95;74.72;98052.48;124631;1093;64242;-79
2021/08/01 10:47:42;;;;;;;4.50;4.10;;;;;;;23.73;74.86;98057.33;124720;1093;64294;-83
2021/08/01 10:50:16;;;;;;;3.37;3.00;;;;;;;23.48;74.93;98050.80;124685;1093;64779;-83
2021/08/01 10:52:43;;;;;;;2.80;2.60;;;;;;;23.20;75.01;98030.08;124803;1093;64290;-83
2021/08/01 10:55:21;;;;;;;2.70;2.50;;;;;;;23.15;75.34;98024.42;124778;1093;64370;-83
2021/08/01 10:58:12;;;;;;;2.85;2.55;;;;;;;23.17;75.35;98033.19;124728;1093;64251;-83
2021/08/01 11:01:03;;;;;;;2.50;2.30;;;;;;;23.27;75.52;98032.79;124708;1093;64305;-84
2021/08/01 11:03:33;;;;;;;2.80;2.30;;;;;;;23.17;75.12;98065.80;125131;1093;64287;-83
2021/08/01 11:06:02;;;;;;;2.50;2.30;;;;;;;22.90;75.15;98075.75;124992;1093;64276;-84
2021/08/01 11:08:29;;;;;;;2.20;2.00;;;;;;;22.67;75.42;98048.91;124942;1093;64274;-83
2021/08/01 11:11:16;;;;;;;2.33;2.13;;;;;;;22.60;75.96;98029.89;124802;1093;64303;-84
2021/08/01 11:13:48;;;;;;;2.57;1.87;;;;;;;22.57;76.09;98022.98;124936;1093;64159;-84
2021/08/01 11:16:31;;;;;;;2.67;2.00;;;;;;;22.83;76.16;98002.39;125090;1093;64271;-84
2021/08/01 11:18:59;;;;;;;3.07;1.80;;;;;;;23.27;75.86;98003.72;125106;1093;64194;-84
2021/08/01 11:21:37;;;;;;;;;;;;;;;23.68;75.53;97980.08;125231;1092;64313;-84
2021/08/01 11:24:07;;;;;;;1.90;1.50;;;;;;;23.89;74.75;97960.81;125133;1093;64271;-83
2021/08/01 11:26:35;;;;;;;;;;;;;;;23.98;74.05;97950.52;125264;1093;64287;-83
2021/08/01 11:29:11;;;;;;;1.73;1.50;;;;;;;24.05;73.89;97948.63;125029;1093;64263;-83
2021/08/01 11:31:39;;;;;;;1.95;1.55;;;;;;;24.06;73.97;97936.67;124908;1093;64278;-84